createdAt,value
2018-12-08T00:00:36.174Z,6.73
2018-12-08T00:03:04.603Z,9.17
2018-12-08T00:05:32.920Z,10.47
2018-12-08T00:08:01.205Z,13.33
2018-12-08T00:10:29.469Z,15.53
2018-12-08T00:12:57.780Z,13.90
2018-12-08T00:15:26.040Z,8.13
2018-12-08T00:17:54.582Z,7.90
2018-12-08T00:20:22.912Z,8.20
2018-12-08T00:22:51.293Z,8.50
2018-12-08T00:25:19.522Z,17.40
2018-12-08T00:27:47.740Z,10.13
2018-12-08T00:30:27.369Z,12.13
2018-12-08T00:32:55.597Z,7.50
2018-12-08T00:35:23.945Z,9.77
2018-12-08T00:37:52.176Z,9.30
2018-12-08T00:40:20.470Z,10.43
2018-12-08T00:42:48.694Z,12.17
2018-12-08T00:45:16.955Z,12.00
2018-12-08T00:47:45.188Z,14.80
2018-12-08T00:50:13.418Z,14.53
2018-12-08T00:52:41.734Z,9.83
2018-12-08T00:55:10.214Z,11.83
2018-12-08T00:57:38.512Z,20.97
2018-12-08T01:00:06.942Z,10.10
2018-12-08T01:02:35.182Z,7.87
2018-12-08T01:05:03.699Z,15.60
2018-12-08T01:07:32.007Z,9.67
2018-12-08T01:10:00.311Z,12.13
2018-12-08T01:12:28.554Z,13.13
2018-12-08T01:14:56.902Z,11.73
2018-12-08T01:17:25.115Z,13.30
2018-12-08T01:19:53.429Z,22.53
2018-12-08T01:22:21.939Z,8.90
2018-12-08T01:24:50.242Z,10.30
2018-12-08T01:27:18.589Z,14.53
2018-12-08T01:29:46.816Z,12.40
2018-12-08T01:32:15.066Z,12.23
2018-12-08T01:34:43.290Z,9.50
2018-12-08T01:37:11.634Z,9.10
2018-12-08T01:39:39.858Z,10.37
2018-12-08T01:42:08.147Z,8.53
2018-12-08T01:44:36.384Z,13.50
2018-12-08T01:47:04.778Z,17.93
2018-12-08T01:49:33.021Z,11.97
2018-12-08T01:52:01.250Z,12.67
2018-12-08T01:54:29.512Z,11.70
2018-12-08T01:56:57.719Z,14.43
2018-12-08T01:59:26.050Z,17.97
2018-12-08T02:01:54.277Z,11.33
2018-12-08T02:04:22.545Z,9.40
2018-12-08T02:06:50.777Z,9.30
2018-12-08T02:09:19.038Z,13.90
2018-12-08T02:11:47.264Z,15.73
2018-12-08T02:14:15.501Z,14.53
2018-12-08T02:16:43.817Z,8.10
2018-12-08T02:19:12.065Z,14.50
2018-12-08T02:21:40.299Z,19.03
2018-12-08T02:24:08.519Z,11.23
2018-12-08T02:26:36.838Z,15.90
2018-12-08T02:29:05.070Z,12.70
2018-12-08T02:31:33.331Z,21.87
2018-12-08T02:34:01.546Z,15.30
2018-12-08T02:36:29.787Z,20.90
2018-12-08T02:38:58.062Z,14.23
2018-12-08T02:41:26.367Z,10.70
2018-12-08T02:43:54.629Z,18.57
2018-12-08T02:46:22.973Z,16.80
2018-12-08T02:48:51.192Z,10.57
2018-12-08T02:51:19.428Z,12.10
2018-12-08T02:53:47.676Z,21.77
2018-12-08T02:56:15.882Z,14.60
2018-12-08T02:58:44.098Z,13.77
2018-12-08T03:01:12.331Z,16.40
2018-12-08T03:03:40.555Z,22.40
2018-12-08T03:06:08.816Z,9.27
2018-12-08T03:08:37.051Z,17.47
2018-12-08T03:11:05.362Z,18.70
2018-12-08T03:13:33.616Z,16.70
2018-12-08T03:16:01.914Z,19.67
2018-12-08T03:18:30.156Z,13.87
2018-12-08T03:20:58.395Z,20.70
2018-12-08T03:23:26.647Z,14.27
2018-12-08T03:25:54.882Z,15.80
2018-12-08T03:28:23.203Z,19.00
2018-12-08T03:30:51.448Z,18.90
2018-12-08T03:33:19.675Z,18.90
2018-12-08T03:35:47.893Z,14.33
2018-12-08T03:38:16.265Z,29.03
2018-12-08T03:40:44.600Z,13.53
2018-12-08T03:43:13.098Z,21.50
2018-12-08T03:45:41.397Z,22.97
2018-12-08T03:48:09.602Z,26.27
2018-12-08T03:50:37.933Z,13.80
2018-12-08T03:53:06.334Z,10.50
2018-12-08T03:55:34.600Z,14.90
2018-12-08T03:58:02.858Z,17.70
2018-12-08T04:00:31.172Z,14.93
2018-12-08T04:02:59.750Z,22.57
2018-12-08T04:05:28.062Z,19.73
2018-12-08T04:07:56.367Z,14.60
2018-12-08T04:10:24.667Z,19.97
2018-12-08T04:12:52.993Z,16.80
2018-12-08T04:15:21.378Z,18.13
2018-12-08T04:17:49.700Z,21.67
2018-12-08T04:20:17.921Z,20.03
2018-12-08T04:22:46.178Z,20.60
2018-12-08T04:25:14.516Z,16.10
2018-12-08T04:27:42.746Z,11.13
2018-12-08T04:30:11.149Z,21.00
2018-12-08T04:32:39.366Z,16.70
2018-12-08T04:35:07.681Z,20.03
2018-12-08T04:37:35.901Z,22.47
2018-12-08T04:40:04.227Z,19.10
2018-12-08T04:42:32.473Z,14.13
2018-12-08T04:45:00.755Z,20.90
2018-12-08T04:47:28.979Z,15.17
2018-12-08T04:49:57.389Z,22.17
2018-12-08T04:52:40.161Z,29.53
2018-12-08T04:55:08.410Z,24.63
2018-12-08T04:57:36.646Z,28.13
2018-12-08T05:00:05.614Z,20.43
2018-12-08T05:02:33.919Z,24.00
2018-12-08T05:05:02.272Z,18.00
2018-12-08T05:07:30.599Z,21.47
2018-12-08T05:09:58.923Z,15.80
2018-12-08T05:12:27.146Z,20.97
2018-12-08T05:14:55.410Z,21.50
2018-12-08T05:17:23.694Z,26.87
2018-12-08T05:19:51.930Z,26.33
2018-12-08T05:22:20.203Z,18.27
2018-12-08T05:24:48.480Z,22.57
2018-12-08T05:27:16.766Z,31.27
2018-12-08T05:29:45.087Z,23.30
2018-12-08T05:32:13.329Z,24.97
2018-12-08T05:34:42.198Z,21.63
2018-12-08T05:37:10.506Z,23.77
2018-12-08T05:39:38.779Z,15.50
2018-12-08T05:42:06.994Z,21.63
2018-12-08T05:44:35.281Z,20.23
2018-12-08T05:47:03.525Z,22.73
2018-12-08T05:49:32.971Z,26.07
2018-12-08T05:52:01.204Z,27.33
2018-12-08T05:54:29.438Z,20.17
2018-12-08T05:56:57.878Z,21.37
2018-12-08T05:59:26.740Z,16.60
2018-12-08T06:01:55.476Z,26.00
2018-12-08T06:04:23.779Z,22.03
2018-12-08T06:06:52.015Z,25.93
2018-12-08T06:09:20.398Z,15.43
2018-12-08T06:11:48.832Z,26.47
2018-12-08T06:14:17.111Z,29.30
2018-12-08T06:16:45.348Z,23.67
2018-12-08T06:19:13.617Z,24.03
2018-12-08T06:21:42.035Z,20.70
2018-12-08T06:24:10.982Z,16.23
2018-12-08T06:28:50.774Z,17.87
2018-12-08T06:31:19.026Z,10.47
2018-12-08T06:33:47.462Z,20.40
2018-12-08T06:36:15.718Z,21.27
2018-12-08T06:38:44.009Z,25.57
2018-12-08T06:41:12.253Z,19.40
2018-12-08T06:43:40.576Z,26.80
2018-12-08T06:46:08.845Z,16.90
2018-12-08T06:48:37.174Z,22.93
2018-12-08T06:51:05.514Z,19.50
2018-12-08T06:53:33.891Z,25.50
2018-12-08T06:56:02.166Z,17.93
2018-12-08T06:58:30.423Z,17.30
2018-12-08T07:00:58.844Z,20.67
2018-12-08T07:03:27.382Z,20.73
2018-12-08T07:05:55.744Z,20.83
2018-12-08T07:08:24.228Z,24.10
2018-12-08T07:10:52.686Z,25.27
2018-12-08T07:13:20.915Z,18.47
2018-12-08T07:15:49.294Z,22.87
2018-12-08T07:18:17.522Z,28.27
2018-12-08T07:20:45.849Z,26.03
2018-12-08T07:23:14.110Z,23.90
2018-12-08T07:25:42.442Z,23.70
2018-12-08T07:28:10.687Z,24.77
2018-12-08T07:30:39.026Z,33.50
2018-12-08T07:33:07.249Z,25.92
2018-12-08T07:35:35.484Z,28.17
2018-12-08T07:38:03.697Z,18.63
2018-12-08T07:40:31.970Z,26.87
2018-12-08T07:43:00.290Z,37.03
2018-12-08T07:45:28.607Z,24.00
2018-12-08T07:47:56.929Z,22.50
2018-12-08T07:50:26.107Z,28.83
2018-12-08T07:52:54.366Z,25.73
2018-12-08T07:55:23.153Z,17.23
2018-12-08T07:57:51.462Z,24.90
2018-12-08T08:00:20.049Z,22.30
2018-12-08T08:02:48.447Z,22.03
2018-12-08T08:05:16.695Z,19.37
2018-12-08T08:07:44.914Z,23.57
2018-12-08T08:10:13.245Z,23.07
2018-12-08T08:12:41.539Z,19.80
2018-12-08T08:15:10.605Z,23.27
2018-12-08T08:17:38.995Z,20.80
2018-12-08T08:20:09.738Z,12.70
2018-12-08T08:22:38.107Z,21.00
2018-12-08T08:25:08.164Z,25.77
2018-12-08T08:27:36.866Z,23.77
2018-12-08T08:30:06.603Z,21.67
2018-12-08T08:32:34.839Z,24.80
2018-12-08T08:35:03.188Z,28.10
2018-12-08T08:37:31.506Z,25.77
2018-12-08T08:39:59.735Z,31.47
2018-12-08T08:42:27.965Z,22.03
2018-12-08T08:44:56.218Z,29.00
2018-12-08T08:47:24.539Z,25.13
2018-12-08T08:49:52.851Z,22.53
2018-12-08T08:52:21.208Z,19.00
2018-12-08T08:54:49.428Z,31.97
2018-12-08T08:57:17.803Z,15.37
2018-12-08T08:59:46.025Z,27.97
2018-12-08T09:02:14.278Z,24.10
2018-12-08T09:04:43.098Z,20.67
2018-12-08T09:07:11.358Z,23.30
2018-12-08T09:09:39.649Z,30.40
2018-12-08T09:12:07.910Z,20.60
2018-12-08T09:14:36.138Z,21.33
2018-12-08T09:17:04.903Z,22.73
2018-12-08T09:19:33.214Z,22.43
2018-12-08T09:22:02.090Z,17.57
2018-12-08T09:24:30.383Z,20.63
2018-12-08T09:26:58.618Z,29.53
2018-12-08T09:29:26.872Z,20.93
2018-12-08T09:31:55.119Z,19.73
2018-12-08T09:34:23.486Z,18.37
2018-12-08T09:36:51.728Z,28.20
2018-12-08T09:39:20.330Z,27.67
2018-12-08T09:41:48.675Z,25.83
2018-12-08T09:44:16.940Z,19.43
2018-12-08T09:46:45.209Z,22.90
2018-12-08T09:49:13.434Z,23.07
2018-12-08T09:51:41.651Z,17.27
2018-12-08T09:54:09.915Z,22.03
2018-12-08T09:56:38.151Z,25.30
2018-12-08T09:59:06.439Z,21.37
2018-12-08T10:01:34.769Z,17.87
2018-12-08T10:04:03.004Z,21.90
2018-12-08T10:06:31.326Z,20.87
2018-12-08T10:08:59.652Z,14.70
2018-12-08T10:11:27.926Z,23.30
2018-12-08T10:13:56.251Z,25.53
2018-12-08T10:16:26.178Z,21.20
2018-12-08T10:18:54.469Z,17.43
2018-12-08T10:21:22.780Z,16.07
2018-12-08T10:23:51.055Z,17.13
2018-12-08T10:26:19.294Z,24.90
2018-12-08T10:28:47.545Z,17.03
2018-12-08T10:31:15.977Z,19.23
2018-12-08T10:33:44.416Z,12.03
2018-12-08T10:36:12.798Z,23.47
2018-12-08T10:38:41.067Z,21.37
2018-12-08T10:41:09.377Z,17.43
2018-12-08T10:43:38.146Z,17.80
2018-12-08T10:46:06.369Z,20.90
2018-12-08T10:48:34.702Z,23.33
2018-12-08T10:51:03.209Z,14.33
2018-12-08T10:53:31.746Z,17.70
2018-12-08T10:56:00.068Z,14.93
2018-12-08T10:58:28.414Z,16.43
2018-12-08T11:01:07.091Z,11.03
2018-12-08T11:03:46.471Z,13.40
2018-12-08T11:06:16.907Z,13.27
2018-12-08T11:08:45.324Z,12.10
2018-12-08T11:11:13.758Z,19.70
2018-12-08T11:13:42.295Z,18.40
2018-12-08T11:16:10.627Z,21.63
2018-12-08T11:18:38.875Z,18.53
2018-12-08T11:21:07.168Z,15.80
2018-12-08T11:23:35.606Z,12.07
2018-12-08T11:26:04.821Z,17.00
2018-12-08T11:28:33.159Z,16.60
2018-12-08T11:31:01.655Z,18.70
2018-12-08T11:33:29.943Z,22.00
2018-12-08T11:35:58.298Z,15.03
2018-12-08T11:38:26.875Z,15.07
2018-12-08T11:40:55.286Z,17.60
2018-12-08T11:43:23.705Z,12.00
2018-12-08T11:45:51.952Z,27.67
2018-12-08T11:48:20.291Z,20.97
2018-12-08T11:50:48.646Z,17.13
2018-12-08T11:53:16.883Z,17.50
2018-12-08T11:55:45.222Z,19.20
2018-12-08T11:58:13.502Z,16.83
2018-12-08T12:00:41.764Z,19.33
2018-12-08T12:03:10.145Z,19.20
2018-12-08T12:05:38.571Z,11.73
2018-12-08T12:08:06.820Z,18.57
2018-12-08T12:10:35.151Z,16.63
2018-12-08T12:13:03.579Z,14.97
2018-12-08T12:15:31.825Z,14.00
2018-12-08T12:18:00.110Z,21.33
2018-12-08T12:20:28.378Z,22.80
2018-12-08T12:22:56.875Z,21.77
2018-12-08T12:25:25.653Z,14.30
2018-12-08T12:27:54.321Z,16.53
2018-12-08T12:30:23.235Z,15.10
2018-12-08T12:32:51.574Z,14.87
2018-12-08T12:35:19.825Z,18.90
2018-12-08T12:37:48.079Z,17.50
2018-12-08T12:40:16.357Z,15.57
2018-12-08T12:42:44.729Z,8.90
2018-12-08T12:45:13.063Z,13.73
2018-12-08T12:47:41.278Z,15.27
2018-12-08T12:50:09.626Z,10.43
2018-12-08T12:52:37.907Z,20.10
2018-12-08T12:55:06.398Z,13.10
2018-12-08T12:57:34.659Z,17.80
2018-12-08T13:00:03.285Z,9.60
2018-12-08T13:02:32.197Z,15.17
2018-12-08T13:05:00.445Z,17.00
2018-12-08T13:07:28.729Z,10.87
2018-12-08T13:09:59.658Z,13.83
2018-12-08T13:12:27.891Z,17.27
2018-12-08T13:14:56.318Z,14.37
2018-12-08T13:17:24.586Z,10.37
2018-12-08T13:19:52.905Z,8.53
2018-12-08T13:22:22.097Z,19.17
2018-12-08T13:24:50.342Z,11.67
2018-12-08T13:27:18.609Z,14.50
2018-12-08T13:29:46.857Z,13.37
2018-12-08T13:32:15.234Z,11.70
2018-12-08T13:34:43.590Z,14.90
2018-12-08T13:37:11.922Z,11.33
2018-12-08T13:39:40.212Z,15.70
2018-12-08T13:42:08.827Z,8.67
2018-12-08T13:44:38.950Z,13.63
2018-12-08T13:47:07.396Z,15.53
2018-12-08T13:49:36.038Z,16.23
2018-12-08T13:52:04.663Z,13.03
2018-12-08T13:54:45.828Z,12.40
2018-12-08T13:57:14.411Z,14.63
2018-12-08T13:59:50.301Z,10.73
2018-12-08T14:02:18.769Z,14.67
2018-12-08T14:04:47.113Z,14.87
2018-12-08T14:07:15.469Z,11.80
2018-12-08T14:09:43.714Z,15.80
2018-12-08T14:12:12.093Z,14.83
2018-12-08T14:14:40.317Z,16.10
2018-12-08T14:17:08.772Z,13.90
2018-12-08T14:19:37.225Z,17.67
2018-12-08T14:22:05.577Z,24.33
2018-12-08T14:24:33.906Z,11.30
2018-12-08T14:27:02.274Z,19.53
2018-12-08T14:29:30.507Z,16.30
2018-12-08T14:31:59.229Z,20.63
2018-12-08T14:34:27.498Z,18.17
2018-12-08T14:36:55.791Z,13.60
2018-12-08T14:39:24.113Z,16.83
2018-12-08T14:41:52.386Z,16.30
2018-12-08T14:44:20.693Z,31.13
2018-12-08T14:46:50.722Z,19.30
2018-12-08T14:49:18.982Z,25.07
2018-12-08T14:51:47.400Z,17.03
2018-12-08T14:54:15.799Z,26.83
2018-12-08T14:56:44.460Z,27.57
2018-12-08T14:59:12.691Z,23.77
2018-12-08T15:01:41.139Z,34.80
2018-12-08T15:04:09.483Z,20.87
2018-12-08T15:06:37.759Z,29.70
2018-12-08T15:09:07.193Z,28.70
2018-12-08T15:11:35.518Z,21.33
2018-12-08T15:14:04.485Z,23.40
2018-12-08T15:16:32.814Z,24.43
2018-12-08T15:19:01.045Z,28.53
2018-12-08T15:21:29.281Z,23.83
2018-12-08T15:23:57.511Z,23.57
2018-12-08T15:26:25.832Z,17.80
2018-12-08T15:28:54.128Z,24.53
2018-12-08T15:31:22.453Z,33.63
2018-12-08T15:33:50.771Z,33.60
2018-12-08T15:36:19.169Z,26.63
2018-12-08T15:38:47.645Z,23.33
2018-12-08T15:41:15.971Z,29.87
2018-12-08T15:43:44.375Z,24.57
2018-12-08T15:46:12.622Z,26.97
2018-12-08T15:48:40.946Z,35.53
2018-12-08T15:51:09.281Z,23.63
2018-12-08T15:53:37.615Z,29.17
2018-12-08T15:56:07.948Z,29.17
2018-12-08T15:58:36.358Z,28.80
2018-12-08T16:01:04.783Z,25.17
2018-12-08T16:03:33.082Z,29.63
2018-12-08T16:06:01.405Z,20.43
2018-12-08T16:08:29.638Z,22.10
2018-12-08T16:10:57.969Z,26.90
2018-12-08T16:13:26.220Z,33.33
2018-12-08T16:15:54.651Z,24.53
2018-12-08T16:18:22.983Z,17.80
2018-12-08T16:20:51.328Z,18.17
2018-12-08T16:23:19.695Z,27.67
2018-12-08T16:25:48.186Z,18.50
2018-12-08T16:28:16.457Z,21.60
2018-12-08T16:30:44.803Z,16.93
2018-12-08T16:33:13.181Z,22.43
2018-12-08T16:35:41.435Z,19.90
2018-12-08T16:38:09.682Z,24.23
2018-12-08T16:40:38.023Z,16.57
2018-12-08T16:43:06.251Z,17.90
2018-12-08T16:45:34.508Z,18.60
2018-12-08T16:48:02.786Z,17.87
2018-12-08T16:50:31.098Z,22.80
2018-12-08T16:52:59.743Z,18.97
2018-12-08T16:55:28.001Z,10.87
2018-12-08T16:57:57.319Z,20.00
2018-12-08T17:00:26.425Z,20.47
2018-12-08T17:02:54.654Z,15.63
2018-12-08T17:05:23.015Z,20.93
2018-12-08T17:07:51.302Z,15.70
2018-12-08T17:10:19.615Z,16.00
2018-12-08T17:12:47.883Z,15.90
2018-12-08T17:15:16.213Z,21.60
2018-12-08T17:17:44.691Z,24.63
2018-12-08T17:20:13.291Z,19.37
2018-12-08T17:22:41.619Z,28.43
2018-12-08T17:25:09.946Z,22.73
2018-12-08T17:27:38.278Z,16.93
2018-12-08T17:30:07.134Z,20.83
2018-12-08T17:32:35.452Z,12.17
2018-12-08T17:35:03.970Z,19.30
2018-12-08T17:37:32.289Z,24.23
2018-12-08T17:40:00.681Z,14.50
2018-12-08T17:42:28.915Z,12.13
2018-12-08T17:44:57.191Z,10.33
2018-12-08T17:47:25.505Z,18.47
2018-12-08T17:49:53.789Z,8.93
2018-12-08T17:52:22.134Z,15.50
2018-12-08T17:54:50.765Z,13.63
2018-12-08T17:57:19.016Z,12.20
2018-12-08T17:59:47.254Z,11.83
2018-12-08T18:02:15.496Z,11.67
2018-12-08T18:04:43.823Z,5.80
2018-12-08T18:07:12.222Z,9.97
2018-12-08T18:09:40.489Z,6.27
2018-12-08T18:12:08.893Z,8.10
2018-12-08T18:14:37.115Z,4.90
2018-12-08T18:17:05.553Z,6.67
2018-12-08T18:19:33.802Z,8.37
2018-12-08T18:22:02.388Z,8.10
2018-12-08T18:24:30.865Z,2.83
2018-12-08T18:26:59.229Z,3.67
2018-12-08T18:29:27.497Z,3.30
2018-12-08T18:31:55.777Z,2.70
2018-12-08T18:34:24.099Z,3.43
2018-12-08T18:36:52.362Z,7.50
2018-12-08T18:39:20.594Z,3.27
2018-12-08T18:41:48.848Z,3.27
2018-12-08T18:44:17.169Z,5.13
2018-12-08T18:46:45.531Z,3.50
2018-12-08T18:49:13.779Z,7.07
2018-12-08T18:51:42.118Z,9.23
2018-12-08T18:54:10.340Z,4.73
2018-12-08T18:56:38.678Z,3.97
2018-12-08T18:59:07.198Z,6.90
2018-12-08T19:01:35.498Z,3.77
2018-12-08T19:04:03.889Z,7.67
2018-12-08T19:06:32.267Z,5.37
2018-12-08T19:09:00.522Z,3.43
2018-12-08T19:11:28.757Z,3.10
2018-12-08T19:13:57.011Z,3.27
2018-12-08T19:16:25.295Z,5.63
2018-12-08T19:18:53.591Z,3.33
2018-12-08T19:21:21.863Z,3.70
2018-12-08T19:23:50.078Z,4.10
2018-12-08T19:26:18.307Z,4.87
2018-12-08T19:28:46.543Z,3.33
2018-12-08T19:31:14.778Z,5.23
2018-12-08T19:33:43.002Z,4.27
2018-12-08T19:36:11.257Z,3.67
2018-12-08T19:38:39.491Z,4.93
2018-12-08T19:41:07.751Z,7.40
2018-12-08T19:43:36.018Z,9.40
2018-12-08T19:46:04.277Z,3.90
2018-12-08T19:48:32.526Z,7.60
2018-12-08T19:51:00.768Z,6.30
2018-12-08T19:53:29.026Z,10.13
2018-12-08T19:55:57.307Z,7.60
2018-12-08T19:58:25.555Z,12.47
2018-12-08T20:00:53.801Z,9.53
2018-12-08T20:03:22.082Z,13.10
2018-12-08T20:05:50.300Z,17.67
2018-12-08T20:08:18.634Z,11.83
2018-12-08T20:10:46.897Z,14.20
2018-12-08T20:13:15.132Z,13.43
2018-12-08T20:15:43.507Z,10.63
2018-12-08T20:18:11.752Z,10.80
2018-12-08T20:20:39.997Z,11.40
2018-12-08T20:23:08.236Z,20.07
2018-12-08T20:25:36.520Z,19.97
2018-12-08T20:28:04.823Z,16.30
2018-12-08T20:30:33.158Z,13.80
2018-12-08T20:33:01.435Z,15.40
2018-12-08T20:35:29.678Z,13.90
2018-12-08T20:37:57.911Z,22.07
2018-12-08T20:40:26.166Z,23.10
2018-12-08T20:42:54.543Z,22.00
2018-12-08T20:45:22.919Z,21.07
2018-12-08T20:47:51.177Z,19.73
2018-12-08T20:50:19.435Z,16.07
2018-12-08T20:52:47.807Z,20.63
2018-12-08T20:55:16.042Z,20.23
2018-12-08T20:57:44.388Z,25.53
2018-12-08T21:00:12.699Z,39.13
2018-12-08T21:02:55.473Z,28.50
2018-12-08T21:05:23.957Z,27.60
2018-12-08T21:07:52.255Z,29.33
2018-12-08T21:10:20.523Z,36.23
2018-12-08T21:12:48.772Z,32.60
2018-12-08T21:15:17.202Z,24.80
2018-12-08T21:17:45.571Z,34.90
2018-12-08T21:20:14.082Z,33.50
2018-12-08T21:22:54.617Z,29.80
2018-12-08T21:25:23.089Z,43.83
2018-12-08T21:27:51.348Z,29.63
2018-12-08T21:30:19.709Z,30.70
2018-12-08T21:32:48.360Z,33.70
2018-12-08T21:35:16.732Z,28.17
2018-12-08T21:37:45.143Z,19.33
2018-12-08T21:40:26.028Z,18.03
2018-12-08T21:42:54.400Z,22.27
2018-12-08T21:45:23.757Z,16.33
2018-12-08T21:47:52.055Z,12.70
2018-12-08T21:50:20.281Z,10.63
2018-12-08T21:52:48.515Z,16.87
2018-12-08T21:55:16.844Z,11.63
2018-12-08T21:57:45.214Z,12.00
2018-12-08T22:00:13.540Z,18.70
2018-12-08T22:02:42.156Z,17.90
2018-12-08T22:05:10.512Z,18.57
2018-12-08T22:07:38.745Z,19.63
2018-12-08T22:10:07.513Z,23.53
2018-12-08T22:12:35.974Z,35.10
2018-12-08T22:15:09.043Z,33.30
2018-12-08T22:17:37.266Z,28.33
2018-12-08T22:20:05.796Z,26.00
2018-12-08T22:22:34.051Z,31.90
2018-12-08T22:25:02.315Z,48.30
2018-12-08T22:27:30.582Z,41.80
2018-12-08T22:29:58.846Z,30.00
2018-12-08T22:32:27.125Z,31.43
2018-12-08T22:34:55.399Z,42.07
2018-12-08T22:37:23.653Z,42.27
2018-12-08T22:39:51.943Z,23.37
2018-12-08T22:42:20.345Z,37.03
2018-12-08T22:44:48.611Z,33.60
2018-12-08T22:47:16.961Z,35.03
2018-12-08T22:49:45.254Z,39.53
2018-12-08T22:52:13.494Z,26.03
2018-12-08T22:54:41.759Z,27.33
2018-12-08T22:57:10.128Z,29.27
2018-12-08T22:59:38.346Z,27.37
2018-12-08T23:02:06.766Z,32.53
2018-12-08T23:04:35.895Z,25.67
2018-12-08T23:07:06.201Z,26.23
2018-12-08T23:09:34.437Z,26.43
2018-12-08T23:12:02.897Z,29.50
2018-12-08T23:14:31.267Z,25.57
2018-12-08T23:16:59.520Z,32.93
2018-12-08T23:19:27.872Z,24.07
2018-12-08T23:21:56.131Z,26.63
2018-12-08T23:24:24.466Z,22.27
2018-12-08T23:26:52.746Z,21.43
2018-12-08T23:29:20.986Z,21.30
2018-12-08T23:31:49.492Z,21.57
2018-12-08T23:34:17.850Z,23.87
2018-12-08T23:36:46.095Z,18.80
2018-12-08T23:39:14.379Z,23.20
2018-12-08T23:41:42.780Z,19.27
2018-12-08T23:44:11.009Z,27.40
2018-12-08T23:46:39.264Z,22.57
2018-12-08T23:49:11.376Z,21.40
2018-12-08T23:51:38.378Z,20.37
2018-12-08T23:54:06.708Z,19.17
2018-12-08T23:56:35.001Z,22.20
2018-12-08T23:59:03.297Z,28.17
